Time;durP1;ratioP1;P1;durP2;ratioP2;P2;SDS_P1;SDS_P2;PMS_P1;PMS_P2;Temp;Humidity;BMP_temperature;BMP_pressure;BME280_temperature;BME280_humidity;BME280_pressure;Samples;Min_cycle;Max_cycle;Signal;HPM_P1;HPM_P2
2021/12/30 00:00:52;;;;;;;30.45;17.00;;;6.30;1.00;;;;;;5077676;28;20225;-82
2021/12/30 00:03:18;;;;;;;41.53;18.90;;;6.30;1.00;;;;;;5073424;28;20231;-84
2021/12/30 00:05:45;;;;;;;31.65;18.45;;;6.30;1.00;;;;;;5076727;28;20287;-83
2021/12/30 00:08:12;;;;;;;31.90;18.33;;;6.30;1.00;;;;;;5068888;28;20225;-84
2021/12/30 00:10:41;;;;;;;28.08;16.92;;;6.30;1.00;;;;;;5075841;28;20221;-85
2021/12/30 00:13:07;;;;;;;30.95;20.52;;;6.30;1.00;;;;;;5067044;28;20226;-82
2021/12/30 00:15:36;;;;;;;32.20;18.58;;;6.40;1.00;;;;;;5063231;28;20304;-84
2021/12/30 00:18:03;;;;;;;36.25;20.45;;;6.40;1.00;;;;;;5062043;28;20228;-82
2021/12/30 00:20:30;;;;;;;36.53;18.58;;;6.40;1.00;;;;;;5068611;28;20478;-82
2021/12/30 00:22:58;;;;;;;34.13;18.38;;;6.40;1.00;;;;;;5063819;28;20253;-83
2021/12/30 00:25:25;;;;;;;30.88;18.80;;;6.40;1.00;;;;;;5063654;28;20224;-84
2021/12/30 00:27:52;;;;;;;33.95;18.60;;;6.30;1.00;;;;;;5064324;28;21267;-82
2021/12/30 00:30:19;;;;;;;34.25;19.65;;;6.30;1.00;;;;;;5071863;28;20320;-82
2021/12/30 00:32:47;;;;;;;29.25;18.55;;;6.30;1.00;;;;;;5068848;28;21226;-84
2021/12/30 00:35:13;;;;;;;27.90;18.23;;;6.20;1.00;;;;;;5071724;28;20308;-85
2021/12/30 00:37:40;;;;;;;33.78;20.15;;;6.30;1.00;;;;;;5089649;28;20221;-85
2021/12/30 00:40:08;;;;;;;25.67;16.63;;;6.30;1.00;;;;;;5069756;28;21495;-83
2021/12/30 00:42:35;;;;;;;25.60;17.17;;;6.30;1.00;;;;;;5061505;28;20322;-82
2021/12/30 00:45:01;;;;;;;25.88;17.52;;;6.30;1.00;;;;;;5067427;28;20231;-83
2021/12/30 00:47:28;;;;;;;23.48;16.92;;;6.30;1.00;;;;;;5061465;28;20255;-84
2021/12/30 00:49:59;;;;;;;27.25;17.58;;;6.30;1.00;;;;;;5063519;28;20231;-84
2021/12/30 00:52:26;;;;;;;24.27;16.80;;;6.30;1.00;;;;;;5058706;28;20470;-84
2021/12/30 00:54:52;;;;;;;25.75;17.33;;;6.30;1.00;;;;;;5063482;28;20311;-84
2021/12/30 00:57:19;;;;;;;22.10;15.20;;;6.40;1.00;;;;;;5059419;28;21098;-84
2021/12/30 00:59:46;;;;;;;25.50;17.48;;;6.40;1.00;;;;;;5067034;28;20262;-83
2021/12/30 01:02:13;;;;;;;26.55;16.13;;;6.40;1.00;;;;;;5059547;28;20359;-84
2021/12/30 01:04:39;;;;;;;25.23;16.10;;;6.40;1.00;;;;;;5065079;28;20970;-85
2021/12/30 01:07:08;;;;;;;23.13;16.42;;;6.40;1.00;;;;;;5064882;28;21241;-83
2021/12/30 01:09:34;;;;;;;23.58;16.67;;;6.40;1.00;;;;;;5062842;28;20293;-82
2021/12/30 01:12:01;;;;;;;23.27;15.63;;;6.50;1.00;;;;;;5054628;28;20439;-83
2021/12/30 01:14:31;;;;;;;22.48;16.65;;;6.50;1.00;;;;;;5065322;28;20220;-83
2021/12/30 01:17:12;;;;;;;24.08;16.25;;;6.50;1.00;;;;;;5067933;28;20297;-84
2021/12/30 01:19:45;;;;;;;22.55;15.60;;;6.50;1.00;;;;;;5073219;28;20249;-85
2021/12/30 01:22:15;;;;;;;24.85;16.98;;;6.50;1.00;;;;;;5090866;28;20225;-84
2021/12/30 01:24:43;;;;;;;23.52;17.88;;;6.60;1.00;;;;;;5068365;28;20439;-84
2021/12/30 01:27:11;;;;;;;22.73;16.45;;;6.50;1.00;;;;;;5072415;28;20240;-85
2021/12/30 01:29:38;;;;;;;22.30;16.00;;;6.60;1.00;;;;;;5060324;28;20224;-84
2021/12/30 01:32:05;;;;;;;22.90;16.75;;;6.50;1.00;;;;;;5059324;28;20285;-83
2021/12/30 01:34:33;;;;;;;24.67;16.83;;;6.50;1.00;;;;;;5067158;28;20264;-85
2021/12/30 01:37:02;;;;;;;23.80;17.00;;;6.50;1.00;;;;;;5075373;28;21041;-84
2021/12/30 01:39:32;;;;;;;22.50;15.25;;;6.50;1.00;;;;;;5072328;28;21009;-82
2021/12/30 01:42:00;;;;;;;23.17;17.02;;;6.60;1.00;;;;;;5059775;28;20698;-85
2021/12/30 01:44:28;;;;;;;21.58;16.60;;;6.60;1.00;;;;;;5065825;28;20253;-83
2021/12/30 01:46:56;;;;;;;20.48;15.15;;;6.60;1.00;;;;;;5062979;28;20220;-83
2021/12/30 01:49:24;;;;;;;21.20;15.45;;;6.60;1.00;;;;;;5075457;28;20767;-84
2021/12/30 01:51:52;;;;;;;22.50;17.42;;;6.60;1.00;;;;;;5063902;28;20228;-82
2021/12/30 01:54:19;;;;;;;20.45;15.60;;;6.60;1.00;;;;;;5066809;28;20316;-83
2021/12/30 01:56:49;;;;;;;21.15;16.35;;;6.50;1.00;;;;;;5068240;28;20236;-82
2021/12/30 01:59:16;;;;;;;22.30;16.10;;;6.50;1.00;;;;;;5081901;28;20233;-83
2021/12/30 02:01:45;;;;;;;22.40;15.75;;;6.50;1.00;;;;;;5089883;28;20248;-84
2021/12/30 02:04:11;;;;;;;19.50;15.00;;;6.50;1.00;;;;;;5092998;28;20400;-85
2021/12/30 02:06:38;;;;;;;21.25;16.35;;;6.50;1.00;;;;;;5086397;28;20281;-85
2021/12/30 02:09:05;;;;;;;22.30;16.30;;;6.50;1.00;;;;;;5087534;28;20213;-84
2021/12/30 02:11:32;;;;;;;21.27;15.10;;;6.50;1.00;;;;;;5083574;28;20241;-85
2021/12/30 02:14:00;;;;;;;20.70;15.23;;;6.50;1.00;;;;;;5071114;28;21215;-84
2021/12/30 02:16:27;;;;;;;19.10;15.30;;;6.50;1.00;;;;;;5066416;28;20300;-83
2021/12/30 02:18:54;;;;;;;20.33;16.92;;;6.50;1.00;;;;;;5067865;28;20233;-83
2021/12/30 02:21:22;;;;;;;21.92;16.00;;;6.50;1.00;;;;;;5070115;28;20243;-84
2021/12/30 02:23:49;;;;;;;21.45;15.40;;;6.50;1.00;;;;;;5082481;28;20255;-86
2021/12/30 02:26:18;;;;;;;20.08;14.73;;;6.60;1.00;;;;;;5079615;28;20312;-82
2021/12/30 02:28:45;;;;;;;21.02;16.10;;;6.60;1.00;;;;;;5064437;28;20318;-82
2021/12/30 02:31:16;;;;;;;21.00;16.58;;;6.60;1.00;;;;;;5062118;28;20297;-82
2021/12/30 02:33:43;;;;;;;20.35;15.27;;;6.60;1.00;;;;;;5058797;28;20233;-85
2021/12/30 02:36:11;;;;;;;21.95;15.90;;;6.70;1.00;;;;;;5063202;28;20323;-84
2021/12/30 02:38:43;;;;;;;21.15;15.48;;;6.70;1.00;;;;;;5059203;28;20229;-83
2021/12/30 02:41:14;;;;;;;19.67;14.48;;;6.70;1.00;;;;;;5060757;28;20261;-85
2021/12/30 02:43:41;;;;;;;19.70;15.20;;;6.70;1.00;;;;;;5058319;28;20320;-82
2021/12/30 02:46:09;;;;;;;21.30;16.05;;;6.70;1.00;;;;;;5064185;28;20220;-85
2021/12/30 02:48:38;;;;;;;21.98;16.13;;;6.70;1.00;;;;;;5062823;28;20225;-82
2021/12/30 02:51:08;;;;;;;20.67;15.07;;;6.80;1.00;;;;;;5058564;28;20587;-83
2021/12/30 02:53:35;;;;;;;18.13;13.98;;;6.80;1.00;;;;;;5060426;28;21300;-84
2021/12/30 02:56:04;;;;;;;21.40;16.27;;;6.80;1.00;;;;;;5059102;28;20225;-84
2021/12/30 02:58:32;;;;;;;21.90;17.27;;;6.90;1.00;;;;;;5062234;28;21002;-84
2021/12/30 03:01:02;;;;;;;20.85;17.13;;;7.00;1.00;;;;;;5056915;28;20246;-85
2021/12/30 03:03:29;;;;;;;22.45;16.25;;;7.00;1.00;;;;;;5063748;28;20313;-83
2021/12/30 03:05:57;;;;;;;19.52;15.02;;;6.90;1.00;;;;;;5067415;28;21489;-82
2021/12/30 03:08:24;;;;;;;23.48;16.17;;;7.00;1.00;;;;;;5066647;28;20232;-83
2021/12/30 03:10:51;;;;;;;21.73;16.25;;;7.00;1.00;;;;;;5061545;28;20302;-81
2021/12/30 03:13:26;;;;;;;22.00;16.67;;;7.00;1.00;;;;;;5068645;28;20274;-82
2021/12/30 03:15:52;;;;;;;23.08;16.55;;;6.90;1.00;;;;;;5091821;28;20257;-84
2021/12/30 03:18:19;;;;;;;20.00;15.73;;;6.90;1.00;;;;;;5088647;28;20255;-84
2021/12/30 03:20:46;;;;;;;23.10;18.15;;;6.90;1.00;;;;;;5063219;28;20232;-82
2021/12/30 03:23:12;;;;;;;21.27;17.38;;;6.90;1.00;;;;;;5061381;28;20236;-81
2021/12/30 03:25:39;;;;;;;20.92;16.45;;;6.90;1.00;;;;;;5063576;28;20225;-84
2021/12/30 03:28:06;;;;;;;23.55;18.05;;;7.00;1.00;;;;;;5063824;28;20264;-81
2021/12/30 03:30:34;;;;;;;21.60;17.35;;;7.00;1.00;;;;;;5058304;28;20290;-82
2021/12/30 03:33:01;;;;;;;19.85;15.80;;;7.00;1.00;;;;;;5063332;28;20231;-83
2021/12/30 03:35:28;;;;;;;20.88;16.88;;;7.00;1.00;;;;;;5058666;28;20317;-84
2021/12/30 03:37:55;;;;;;;22.00;15.50;;;7.00;1.00;;;;;;5061568;28;20968;-84
2021/12/30 03:40:22;;;;;;;20.52;15.52;;;7.10;1.00;;;;;;5061758;28;20229;-83
2021/12/30 03:42:48;;;;;;;22.45;16.23;;;7.10;1.00;;;;;;5064780;28;20224;-83
2021/12/30 03:45:16;;;;;;;18.17;14.23;;;7.20;1.00;;;;;;5058763;28;20364;-84
2021/12/30 03:47:47;;;;;;;18.83;15.43;;;7.20;1.00;;;;;;5062284;28;20222;-84
2021/12/30 03:50:20;;;;;;;17.85;15.65;;;7.20;1.00;;;;;;5063466;28;21208;-84
2021/12/30 03:52:48;;;;;;;19.60;14.98;;;7.20;1.00;;;;;;5062345;28;20233;-81
2021/12/30 03:55:15;;;;;;;16.13;13.05;;;7.30;1.00;;;;;;5063353;28;20251;-82
2021/12/30 03:57:41;;;;;;;22.73;14.93;;;7.30;1.00;;;;;;5063156;28;20255;-82
2021/12/30 04:00:10;;;;;;;17.60;14.07;;;7.30;1.00;;;;;;5065410;28;20225;-83
2021/12/30 04:02:37;;;;;;;17.67;14.25;;;7.40;1.00;;;;;;5063938;28;20297;-83
2021/12/30 04:05:06;;;;;;;18.80;14.30;;;7.40;1.00;;;;;;5060218;28;20364;-84
2021/12/30 04:07:33;;;;;;;16.92;13.68;;;7.40;1.00;;;;;;5063127;28;20230;-83
2021/12/30 04:10:00;;;;;;;16.08;14.25;;;7.40;1.00;;;;;;5061586;28;20237;-83
2021/12/30 04:12:27;;;;;;;21.67;14.68;;;7.40;1.00;;;;;;5059608;28;20650;-84
2021/12/30 04:14:53;;;;;;;17.02;13.02;;;7.40;1.00;;;;;;5058488;28;20235;-82
2021/12/30 04:17:22;;;;;;;16.15;13.38;;;7.40;1.00;;;;;;5061070;28;21441;-83
2021/12/30 04:19:49;;;;;;;17.40;12.73;;;7.40;1.00;;;;;;5061305;28;20234;-84
2021/12/30 04:22:18;;;;;;;18.65;13.57;;;7.40;1.00;;;;;;5058669;28;20222;-83
2021/12/30 04:24:45;;;;;;;20.38;15.20;;;7.40;1.00;;;;;;5062166;28;20255;-84
2021/12/30 04:27:12;;;;;;;19.52;14.32;;;7.50;1.00;;;;;;5061906;28;20236;-83
2021/12/30 04:29:39;;;;;;;19.40;14.15;;;7.50;1.00;;;;;;5062970;28;20221;-83
2021/12/30 04:32:06;;;;;;;20.90;13.88;;;7.50;1.00;;;;;;5059987;28;20232;-83
2021/12/30 04:34:33;;;;;;;22.55;15.45;;;7.50;1.00;;;;;;5061847;28;20233;-85
2021/12/30 04:37:00;;;;;;;25.70;16.27;;;7.50;1.00;;;;;;5063063;28;20361;-84
2021/12/30 04:39:30;;;;;;;23.30;15.52;;;7.60;1.00;;;;;;5063110;28;20280;-83
2021/12/30 04:41:58;;;;;;;26.27;16.55;;;7.60;1.00;;;;;;5060711;28;20294;-82
2021/12/30 04:44:25;;;;;;;27.90;15.40;;;7.70;1.00;;;;;;5066252;28;20928;-82
2021/12/30 04:46:52;;;;;;;21.08;15.05;;;7.70;1.00;;;;;;5061776;28;20223;-84
2021/12/30 04:49:19;;;;;;;25.17;16.98;;;7.80;1.00;;;;;;5062710;28;20265;-80
2021/12/30 04:51:45;;;;;;;24.38;15.63;;;7.80;1.00;;;;;;5074152;28;20245;-82
2021/12/30 04:54:12;;;;;;;26.23;15.80;;;7.90;1.00;;;;;;5067504;28;20391;-82
2021/12/30 04:56:40;;;;;;;32.20;18.55;;;7.90;1.00;;;;;;5080716;28;20241;-79
2021/12/30 04:59:07;;;;;;;28.75;19.10;;;8.00;1.00;;;;;;5070951;28;20234;-82
2021/12/30 05:01:34;;;;;;;35.03;19.00;;;8.00;1.00;;;;;;5061216;28;20215;-83
2021/12/30 05:04:00;;;;;;;32.33;18.63;;;8.00;1.00;;;;;;5063199;28;20315;-85
2021/12/30 05:06:27;;;;;;;33.35;19.20;;;8.10;1.00;;;;;;5059174;28;20226;-85
2021/12/30 05:08:54;;;;;;;32.85;18.95;;;8.10;1.00;;;;;;5060830;28;20236;-84
2021/12/30 05:11:21;;;;;;;35.53;18.77;;;8.10;1.00;;;;;;5058898;28;20228;-86
2021/12/30 05:13:49;;;;;;;33.85;19.50;;;8.20;1.00;;;;;;5061318;28;20224;-84
2021/12/30 05:16:16;;;;;;;29.38;18.00;;;8.20;1.00;;;;;;5064737;28;20238;-83
2021/12/30 05:18:45;;;;;;;32.33;20.38;;;8.20;1.00;;;;;;5067517;28;20268;-84
2021/12/30 05:21:12;;;;;;;41.70;21.75;;;8.20;1.00;;;;;;5062214;28;20232;-84
2021/12/30 05:23:39;;;;;;;33.03;18.52;;;8.30;1.00;;;;;;5069184;28;20240;-83
2021/12/30 05:26:06;;;;;;;30.35;20.50;;;8.30;1.00;;;;;;5062828;28;20731;-83
2021/12/30 05:28:32;;;;;;;37.80;22.85;;;8.30;1.00;;;;;;5069724;28;20236;-83
2021/12/30 05:31:01;;;;;;;33.65;19.85;;;8.40;1.00;;;;;;5075730;28;20379;-82
2021/12/30 05:33:28;;;;;;;34.13;21.67;;;8.40;1.00;;;;;;5059538;28;21021;-84
2021/12/30 05:35:55;;;;;;;33.05;21.90;;;8.40;1.00;;;;;;5058769;28;20223;-83
2021/12/30 05:38:21;;;;;;;30.95;20.25;;;8.40;1.00;;;;;;5059210;28;21112;-83
2021/12/30 05:40:48;;;;;;;35.33;21.53;;;8.50;1.00;;;;;;5064694;28;20239;-83
2021/12/30 05:43:15;;;;;;;37.05;22.15;;;8.50;1.00;;;;;;5061331;28;20449;-84
2021/12/30 05:45:41;;;;;;;32.25;20.45;;;8.50;1.00;;;;;;5063744;28;20325;-83
2021/12/30 05:48:09;;;;;;;31.38;20.25;;;8.50;1.00;;;;;;5064882;28;20317;-84
2021/12/30 05:50:37;;;;;;;33.53;22.75;;;8.60;1.00;;;;;;5081012;28;20225;-85
2021/12/30 05:53:04;;;;;;;32.30;21.98;;;8.60;1.00;;;;;;5079414;28;20232;-85
2021/12/30 05:55:31;;;;;;;36.05;22.05;;;8.60;1.00;;;;;;5075934;28;20316;-83
2021/12/30 05:57:59;;;;;;;35.17;21.08;;;8.60;1.00;;;;;;5079371;28;20235;-83
2021/12/30 06:00:27;;;;;;;35.30;19.83;;;8.70;1.00;;;;;;5078860;28;20238;-84
2021/12/30 06:02:54;;;;;;;33.80;21.25;;;8.70;1.00;;;;;;5074890;28;20437;-85
2021/12/30 06:05:22;;;;;;;36.77;22.00;;;8.70;1.00;;;;;;5075736;28;20275;-82
2021/12/30 06:07:49;;;;;;;35.80;20.67;;;8.70;1.00;;;;;;5076149;28;20402;-84
2021/12/30 06:10:17;;;;;;;30.90;20.95;;;8.70;1.00;;;;;;5075192;28;20337;-83
2021/12/30 06:12:45;;;;;;;33.08;21.23;;;8.70;1.00;;;;;;5073951;28;20299;-83
2021/12/30 06:15:13;;;;;;;28.77;21.20;;;8.80;1.00;;;;;;5078735;28;20256;-83
2021/12/30 06:17:40;;;;;;;31.88;22.55;;;8.80;1.00;;;;;;5075313;28;20434;-86
2021/12/30 06:20:10;;;;;;;30.00;20.00;;;8.80;1.00;;;;;;5077691;28;20255;-80
2021/12/30 06:22:38;;;;;;;35.30;22.77;;;8.80;1.00;;;;;;5081372;28;20450;-83
2021/12/30 06:25:05;;;;;;;36.30;22.50;;;8.90;1.00;;;;;;5082529;28;20289;-83
2021/12/30 06:27:32;;;;;;;36.85;22.58;;;8.80;1.00;;;;;;5073689;28;20227;-78
2021/12/30 06:29:59;;;;;;;34.78;21.83;;;8.90;1.00;;;;;;5077517;28;20242;-76
2021/12/30 06:32:26;;;;;;;33.00;19.17;;;8.90;1.00;;;;;;5077053;28;20298;-81
2021/12/30 06:34:53;;;;;;;29.70;19.40;;;8.90;1.00;;;;;;5069060;28;20453;-79
2021/12/30 06:37:20;;;;;;;37.07;20.33;;;8.90;1.00;;;;;;5075744;28;20441;-79
2021/12/30 06:39:48;;;;;;;34.45;18.73;;;8.90;1.00;;;;;;5082384;28;20447;-80
2021/12/30 06:42:15;;;;;;;30.85;18.25;;;8.90;1.00;;;;;;5088508;28;20301;-76
2021/12/30 06:44:41;;;;;;;30.00;18.80;;;8.90;1.00;;;;;;5090580;28;20372;-77
2021/12/30 06:47:09;;;;;;;26.55;18.17;;;8.90;1.00;;;;;;5087495;28;20483;-75
2021/12/30 06:49:37;;;;;;;36.55;19.35;;;8.90;1.00;;;;;;5076748;28;20226;-78
2021/12/30 06:52:05;;;;;;;29.70;20.17;;;8.80;1.00;;;;;;5076184;28;20253;-79
2021/12/30 06:54:32;;;;;;;26.45;17.35;;;8.80;1.00;;;;;;5072213;28;20535;-78
2021/12/30 06:57:01;;;;;;;30.45;17.45;;;8.70;1.00;;;;;;5075275;28;20251;-83
2021/12/30 06:59:28;;;;;;;29.00;18.65;;;8.80;1.00;;;;;;5073987;28;20308;-84
2021/12/30 07:01:57;;;;;;;30.40;18.70;;;8.70;1.00;;;;;;5070197;28;21146;-79
2021/12/30 07:04:23;;;;;;;26.33;18.00;;;8.70;1.00;;;;;;5071593;28;20616;-78
2021/12/30 07:06:50;;;;;;;29.10;17.85;;;8.60;1.00;;;;;;5067765;28;21136;-80
2021/12/30 07:09:17;;;;;;;31.52;19.25;;;8.60;1.00;;;;;;5065968;28;20236;-82
2021/12/30 07:11:44;;;;;;;31.70;18.00;;;8.60;1.00;;;;;;5059428;28;20230;-80
2021/12/30 07:14:12;;;;;;;32.10;21.93;;;8.60;1.00;;;;;;5065071;28;20541;-78
2021/12/30 07:16:38;;;;;;;28.30;17.57;;;8.50;1.00;;;;;;5066383;28;20490;-80
2021/12/30 07:19:05;;;;;;;30.30;18.33;;;8.50;1.00;;;;;;5070276;28;20478;-78
2021/12/30 07:21:31;;;;;;;31.37;19.30;;;8.50;1.00;;;;;;5073556;28;20448;-80
2021/12/30 07:23:58;;;;;;;27.30;17.33;;;8.50;1.00;;;;;;5076627;28;22284;-77
2021/12/30 07:26:25;;;;;;;27.70;18.27;;;8.50;1.00;;;;;;5086362;28;20505;-77
2021/12/30 07:28:51;;;;;;;25.33;16.83;;;8.50;1.00;;;;;;5063062;28;20428;-78
2021/12/30 07:31:19;;;;;;;31.70;17.13;;;8.50;1.00;;;;;;5061216;28;20856;-77
2021/12/30 07:33:46;;;;;;;24.90;16.60;;;8.60;1.00;;;;;;5063798;28;20466;-77
2021/12/30 07:36:13;;;;;;;30.23;17.50;;;8.60;1.00;;;;;;5066359;28;21680;-78
2021/12/30 07:38:41;;;;;;;29.00;17.37;;;8.70;1.00;;;;;;5065039;28;20543;-80
2021/12/30 07:41:07;;;;;;;23.85;17.00;;;8.80;1.00;;;;;;5054197;28;20458;-82
2021/12/30 07:43:34;;;;;;;24.88;16.08;;;8.80;1.00;;;;;;5063549;28;20459;-82
2021/12/30 07:46:01;;;;;;;28.35;17.35;;;8.80;1.00;;;;;;5057955;28;20232;-81
2021/12/30 07:48:29;;;;;;;28.40;17.60;;;8.80;1.00;;;;;;5063802;28;20279;-83
2021/12/30 07:50:56;;;;;;;25.97;16.10;;;8.80;1.00;;;;;;5057784;28;20408;-83
2021/12/30 07:53:23;;;;;;;29.00;16.98;;;8.90;1.00;;;;;;5063964;28;20455;-83
2021/12/30 07:55:50;;;;;;;29.20;18.52;;;8.90;1.00;;;;;;5069788;28;20327;-83
2021/12/30 07:58:17;;;;;;;28.87;16.63;;;8.90;1.00;;;;;;5064076;28;20228;-83
2021/12/30 08:00:44;;;;;;;28.00;16.47;;;8.90;1.00;;;;;;5066227;28;20489;-82
2021/12/30 08:03:11;;;;;;;31.45;18.20;;;8.90;1.00;;;;;;5065141;28;21280;-84
2021/12/30 08:05:39;;;;;;;27.93;16.10;;;8.90;1.00;;;;;;5079360;28;20254;-83
2021/12/30 08:08:06;;;;;;;25.47;16.57;;;8.90;1.00;;;;;;5076587;28;20529;-84
2021/12/30 08:10:33;;;;;;;28.20;16.50;;;8.90;1.00;;;;;;5065600;28;21288;-84
2021/12/30 08:13:00;;;;;;;26.37;15.30;;;8.90;1.00;;;;;;5065084;28;20428;-84
2021/12/30 08:15:27;;;;;;;23.67;17.20;;;9.00;1.00;;;;;;5071962;28;20439;-82
2021/12/30 08:17:54;;;;;;;28.40;15.80;;;9.00;1.00;;;;;;5088392;28;20423;-84
2021/12/30 08:20:22;;;;;;;27.10;15.63;;;9.10;1.00;;;;;;5064429;28;20423;-85
2021/12/30 08:22:54;;;;;;;29.38;17.17;;;9.10;1.00;;;;;;5067930;28;20435;-88
2021/12/30 08:25:22;;;;;;;26.20;16.20;;;9.20;1.00;;;;;;5069020;28;20263;-87
2021/12/30 08:27:49;;;;;;;23.03;15.83;;;9.20;1.00;;;;;;5066572;28;20494;-87
2021/12/30 08:30:18;;;;;;;27.40;17.43;;;9.40;1.00;;;;;;5070729;28;21252;-86
2021/12/30 08:32:46;;;;;;;25.30;16.03;;;9.40;1.00;;;;;;5084916;28;20586;-87
2021/12/30 08:35:15;;;;;;;25.27;15.80;;;9.60;1.00;;;;;;5081320;28;20446;-87
2021/12/30 08:37:43;;;;;;;23.13;16.13;;;9.60;1.00;;;;;;5078474;28;20451;-83
2021/12/30 08:40:14;;;;;;;23.70;15.60;;;9.70;1.00;;;;;;5070763;28;20586;-87
2021/12/30 08:42:42;;;;;;;24.97;17.60;;;9.80;1.00;;;;;;5068396;28;20428;-87
2021/12/30 08:45:10;;;;;;;23.83;15.37;;;9.80;1.00;;;;;;5078835;28;22900;-86
2021/12/30 08:47:38;;;;;;;22.30;14.57;;;9.90;1.00;;;;;;5076115;28;20434;-87
2021/12/30 08:50:08;;;;;;;28.50;14.50;;;9.90;1.00;;;;;;5065406;28;20459;-86
2021/12/30 08:52:36;;;;;;;23.80;14.37;;;9.90;1.00;;;;;;5066986;28;20459;-85
2021/12/30 08:55:04;;;;;;;22.67;15.63;;;10.00;1.00;;;;;;5067149;28;21341;-85
2021/12/30 08:57:34;;;;;;;25.43;15.40;;;9.90;1.00;;;;;;5075202;28;20587;-84
2021/12/30 09:00:01;;;;;;;24.17;15.03;;;10.00;1.00;;;;;;5074573;28;20496;-84
2021/12/30 09:02:27;;;;;;;25.30;15.47;;;10.00;1.00;;;;;;5074301;28;20467;-85
2021/12/30 09:04:54;;;;;;;26.90;15.90;;;10.00;1.00;;;;;;5071297;28;20526;-84
2021/12/30 09:07:22;;;;;;;23.53;15.00;;;10.00;1.00;;;;;;5070527;28;21047;-84
2021/12/30 09:09:51;;;;;;;23.87;15.57;;;10.00;1.00;;;;;;5068872;28;20447;-82
2021/12/30 09:12:18;;;;;;;24.53;15.37;;;10.10;1.00;;;;;;5073098;28;20428;-83
2021/12/30 09:14:47;;;;;;;22.47;14.87;;;10.10;1.00;;;;;;5077388;28;20581;-82
2021/12/30 09:17:14;;;;;;;20.27;13.60;;;10.10;1.00;;;;;;5095721;28;20444;-81
2021/12/30 09:19:41;;;;;;;22.30;15.27;;;10.00;1.00;;;;;;5072785;28;20518;-80
2021/12/30 09:22:08;;;;;;;20.50;14.83;;;10.10;1.00;;;;;;5068623;28;20942;-81
2021/12/30 09:24:35;;;;;;;27.37;21.93;;;10.10;1.00;;;;;;5069179;28;20498;-81
2021/12/30 09:27:02;;;;;;;24.67;17.90;;;10.20;1.00;;;;;;5066087;28;20851;-81
2021/12/30 09:29:29;;;;;;;21.47;14.67;;;10.20;1.00;;;;;;5064706;28;20527;-80
2021/12/30 09:31:58;;;;;;;23.30;18.33;;;10.10;1.00;;;;;;5066811;28;20598;-80
2021/12/30 09:34:26;;;;;;;22.03;15.93;;;10.10;1.00;;;;;;5065842;28;20562;-80
2021/12/30 09:36:52;;;;;;;30.30;20.07;;;10.10;1.00;;;;;;5061844;28;20501;-80
2021/12/30 09:39:19;;;;;;;24.20;15.20;;;10.20;1.00;;;;;;5075844;28;20444;-81
2021/12/30 09:41:48;;;;;;;22.13;14.93;;;10.20;1.00;;;;;;5067411;28;20427;-80
2021/12/30 09:44:17;;;;;;;23.20;13.57;;;10.30;1.00;;;;;;5081717;28;20417;-81
2021/12/30 09:46:45;;;;;;;22.03;13.83;;;10.30;1.00;;;;;;5070764;28;20451;-80
2021/12/30 09:49:14;;;;;;;18.97;14.43;;;10.30;1.00;;;;;;5079056;28;21285;-80
2021/12/30 09:51:42;;;;;;;25.17;14.97;;;10.30;1.00;;;;;;5086150;28;20420;-80
2021/12/30 09:54:09;;;;;;;21.90;14.60;;;10.30;1.00;;;;;;5085950;28;20421;-82
2021/12/30 09:56:35;;;;;;;23.40;16.20;;;10.40;1.00;;;;;;5080950;28;20466;-81
2021/12/30 09:59:02;;;;;;;21.97;13.57;;;10.30;1.00;;;;;;5083955;28;20396;-80
2021/12/30 10:01:29;;;;;;;23.33;14.83;;;10.30;1.00;;;;;;5077553;28;21331;-81
2021/12/30 10:03:57;;;;;;;18.77;13.80;;;10.20;1.00;;;;;;5069082;28;20448;-80
2021/12/30 10:06:25;;;;;;;21.50;14.17;;;10.20;1.00;;;;;;5064096;28;20447;-80
2021/12/30 10:08:56;;;;;;;21.43;14.83;;;10.20;1.00;;;;;;5068643;28;20495;-82
2021/12/30 10:11:24;;;;;;;21.30;16.37;;;10.20;1.00;;;;;;5079352;28;20428;-80
2021/12/30 10:13:52;;;;;;;20.30;13.80;;;10.20;1.00;;;;;;5073922;28;20432;-82
2021/12/30 10:16:20;;;;;;;14.87;11.73;;;10.20;1.00;;;;;;5067201;28;20502;-82
2021/12/30 10:18:51;;;;;;;19.60;13.90;;;10.20;1.00;;;;;;5063681;28;21433;-81
2021/12/30 10:21:20;;;;;;;20.60;13.90;;;10.30;1.00;;;;;;5067970;28;20589;-81
2021/12/30 10:23:50;;;;;;;23.43;15.87;;;10.30;1.00;;;;;;5072214;28;20460;-81
2021/12/30 10:26:17;;;;;;;18.03;12.90;;;10.30;1.00;;;;;;5067739;28;20470;-79
2021/12/30 10:28:45;;;;;;;18.00;12.70;;;10.20;1.00;;;;;;5067089;28;20476;-83
2021/12/30 10:31:22;;;;;;;17.23;11.47;;;10.30;1.00;;;;;;5069346;28;20463;-85
2021/12/30 10:33:56;;;;;;;17.67;13.60;;;10.30;1.00;;;;;;5071570;28;20453;-88
2021/12/30 10:36:25;;;;;;;23.00;12.10;;;10.30;1.00;;;;;;5069241;28;20547;-84
2021/12/30 10:38:56;;;;;;;18.03;12.93;;;10.30;1.00;;;;;;5065916;28;20419;-83
2021/12/30 10:41:25;;;;;;;17.13;12.70;;;10.40;1.00;;;;;;5070012;28;20480;-84
2021/12/30 10:43:54;;;;;;;17.50;13.83;;;10.40;1.00;;;;;;5076798;28;20462;-85
2021/12/30 10:46:23;;;;;;;18.03;12.57;;;10.50;1.00;;;;;;5081309;28;20420;-82
2021/12/30 10:48:53;;;;;;;17.40;14.37;;;10.50;1.00;;;;;;5071390;28;20448;-83
2021/12/30 10:51:22;;;;;;;18.37;12.83;;;10.50;1.00;;;;;;5066440;28;20500;-83
2021/12/30 10:53:50;;;;;;;14.60;10.83;;;10.50;1.00;;;;;;5066331;28;20451;-83
2021/12/30 10:56:30;;;;;;;19.73;12.37;;;10.40;1.00;;;;;;5067180;28;20504;-85
2021/12/30 10:59:09;;;;;;;15.53;11.60;;;10.30;1.00;;;;;;5066012;28;20531;-81
2021/12/30 11:01:39;;;;;;;18.90;13.10;;;10.30;1.00;;;;;;5069101;28;20982;-82
2021/12/30 11:04:06;;;;;;;24.57;13.23;;;10.20;1.00;;;;;;5065552;28;21293;-84
2021/12/30 11:06:33;;;;;;;14.87;11.57;;;10.30;1.00;;;;;;5066718;28;20420;-82
2021/12/30 11:09:10;;;;;;;21.50;11.73;;;10.30;1.00;;;;;;5066774;28;20451;-80
2021/12/30 11:11:42;;;;;;;20.30;11.77;;;10.30;1.00;;;;;;5069311;28;20517;-83
2021/12/30 11:14:10;;;;;;;16.77;11.87;;;10.20;1.00;;;;;;5071138;28;20482;-85
2021/12/30 11:17:10;;;;;;;20.13;11.90;;;10.20;1.00;;;;;;5073510;28;20448;-83
2021/12/30 11:19:40;;;;;;;21.50;11.53;;;10.20;1.00;;;;;;5081025;28;20416;-87
2021/12/30 11:22:13;;;;;;;20.57;11.50;;;10.30;1.00;;;;;;5079446;28;20562;-83
2021/12/30 11:24:40;;;;;;;15.40;10.80;;;10.30;1.00;;;;;;5078688;28;20431;-86
2021/12/30 11:27:10;;;;;;;17.63;11.43;;;10.30;1.00;;;;;;5072724;28;20470;-85
2021/12/30 11:29:40;;;;;;;17.30;12.30;;;10.30;1.00;;;;;;5073004;28;20428;-86
2021/12/30 11:32:09;;;;;;;16.23;12.20;;;10.30;1.00;;;;;;5071858;28;20547;-85
2021/12/30 11:34:36;;;;;;;19.00;12.83;;;10.40;1.00;;;;;;5075158;28;20450;-85
2021/12/30 11:37:05;;;;;;;23.60;14.60;;;10.40;1.00;;;;;;5085863;28;20515;-84
2021/12/30 11:39:33;;;;;;;20.10;12.73;;;10.40;1.00;;;;;;5090210;28;20479;-85
2021/12/30 11:42:03;;;;;;;15.57;11.47;;;10.50;1.00;;;;;;5085061;28;20447;-85
2021/12/30 11:44:46;;;;;;;14.80;12.10;;;10.50;1.00;;;;;;5072888;28;21031;-83
2021/12/30 11:47:42;;;;;;;19.40;12.63;;;10.50;1.00;;;;;;5071368;28;21113;-83
2021/12/30 11:50:16;;;;;;;14.07;11.10;;;10.40;1.00;;;;;;5073529;28;20490;-84
2021/12/30 11:52:52;;;;;;;16.83;11.83;;;10.50;1.00;;;;;;5076704;28;20459;-85
2021/12/30 11:55:53;;;;;;;18.73;11.47;;;10.40;1.00;;;;;;5071707;28;20461;-84
2021/12/30 11:58:36;;;;;;;19.00;11.07;;;10.50;1.00;;;;;;5087094;28;20484;-85
2021/12/30 12:01:25;;;;;;;19.20;13.27;;;10.50;1.00;;;;;;5074898;28;20547;-83
2021/12/30 12:03:59;;;;;;;15.37;11.73;;;10.40;1.00;;;;;;5072544;28;20497;-83
2021/12/30 12:06:32;;;;;;;19.57;12.90;;;10.40;1.00;;;;;;5075451;28;20482;-84
2021/12/30 12:09:02;;;;;;;18.07;10.90;;;10.50;1.00;;;;;;5077541;28;20446;-82
2021/12/30 12:11:30;;;;;;;18.80;11.30;;;10.40;1.00;;;;;;5079920;28;21182;-86
2021/12/30 12:14:13;;;;;;;14.50;11.30;;;10.30;1.00;;;;;;5072535;28;20488;-83
2021/12/30 12:16:47;;;;;;;21.80;13.37;;;10.30;1.00;;;;;;5073052;28;20447;-81
2021/12/30 12:19:17;;;;;;;21.50;14.97;;;10.30;1.00;;;;;;5072296;28;20486;-81
2021/12/30 12:21:45;;;;;;;18.37;12.20;;;10.30;1.00;;;;;;5070287;28;20467;-83
2021/12/30 12:24:32;;;;;;;32.47;24.57;;;10.20;1.00;;;;;;5071904;28;20595;-82
2021/12/30 12:27:00;;;;;;;24.30;16.40;;;10.20;1.00;;;;;;5072799;28;20872;-82
2021/12/30 12:29:29;;;;;;;23.50;14.90;;;10.20;1.00;;;;;;5071833;28;20510;-83
2021/12/30 12:31:57;;;;;;;18.57;13.90;;;10.20;1.00;;;;;;5071361;28;20499;-83
2021/12/30 12:34:37;;;;;;;20.40;14.23;;;10.20;1.00;;;;;;5071035;28;20455;-82
2021/12/30 12:37:05;;;;;;;20.07;13.30;;;10.20;1.00;;;;;;5081783;28;20447;-82
2021/12/30 12:39:38;;;;;;;19.30;13.33;;;10.20;1.00;;;;;;5079781;28;20448;-85
2021/12/30 12:42:08;;;;;;;16.80;13.03;;;10.30;1.00;;;;;;5081288;28;20514;-84
2021/12/30 12:44:37;;;;;;;18.43;14.70;;;10.30;1.00;;;;;;5084950;28;20513;-86
2021/12/30 12:47:19;;;;;;;23.63;13.80;;;10.30;1.00;;;;;;5076012;28;20442;-85
2021/12/30 12:49:47;;;;;;;20.27;13.90;;;10.30;1.00;;;;;;5072781;28;20471;-85